createdAt,value
2018-07-25T00:00:59.819Z,1008.04
2018-07-25T00:01:59.822Z,1008.03
2018-07-25T00:02:59.830Z,1008.05
2018-07-25T00:03:59.952Z,1008.06
2018-07-25T00:04:59.848Z,1008.05
2018-07-25T00:05:59.860Z,1008.02
2018-07-25T00:06:59.877Z,1008.02
2018-07-25T00:07:59.874Z,1008.06
2018-07-25T00:08:59.889Z,1008.05
2018-07-25T00:09:59.889Z,1008.02
2018-07-25T00:10:59.904Z,1008.03
2018-07-25T00:11:59.918Z,1008.06
2018-07-25T00:12:59.922Z,1008.02
2018-07-25T00:13:59.933Z,1008.05
2018-07-25T00:14:59.941Z,1008.04
2018-07-25T00:15:59.946Z,1008.05
2018-07-25T00:16:59.961Z,1008.05
2018-07-25T00:17:59.959Z,1008.03
2018-07-25T00:18:59.971Z,1008.03
2018-07-25T00:19:59.982Z,1008.09
2018-07-25T00:20:59.990Z,1008.10
2018-07-25T00:22:00.002Z,1008.09
2018-07-25T00:23:00.004Z,1008.07
2018-07-25T00:24:00.014Z,1008.09
2018-07-25T00:25:00.028Z,1008.09
2018-07-25T00:26:00.030Z,1008.06
2018-07-25T00:27:00.036Z,1008.09
2018-07-25T00:28:00.056Z,1008.09
2018-07-25T00:29:00.055Z,1008.11
2018-07-25T00:30:00.072Z,1008.09
2018-07-25T00:31:00.079Z,1008.07
2018-07-25T00:32:00.088Z,1008.08
2018-07-25T00:33:00.094Z,1008.05
2018-07-25T00:34:00.101Z,1008.10
2018-07-25T00:35:00.111Z,1008.08
2018-07-25T00:36:00.116Z,1008.07
2018-07-25T00:37:00.129Z,1008.06
2018-07-25T00:38:00.134Z,1008.07
2018-07-25T00:39:00.142Z,1008.07
2018-07-25T00:40:00.153Z,1008.04
2018-07-25T00:41:00.163Z,1008.04
2018-07-25T00:42:00.165Z,1008.06
2018-07-25T00:43:00.181Z,1007.99
2018-07-25T00:44:00.179Z,1008.00
2018-07-25T00:45:00.192Z,1008.04
2018-07-25T00:46:00.206Z,1008.01
2018-07-25T00:47:01.095Z,1008.02
2018-07-25T00:48:00.221Z,1008.01
2018-07-25T00:49:00.237Z,1008.03
2018-07-25T00:50:00.250Z,1008.00
2018-07-25T00:51:00.248Z,1008.01
2018-07-25T00:52:00.246Z,1007.98
2018-07-25T00:53:00.296Z,1008.03
2018-07-25T00:54:00.272Z,1007.99
2018-07-25T00:55:00.271Z,1007.99
2018-07-25T00:56:00.288Z,1007.98
2018-07-25T00:57:00.296Z,1008.02
2018-07-25T00:58:00.310Z,1008.05
2018-07-25T00:59:00.303Z,1007.82
2018-07-25T01:00:00.320Z,1008.05
2018-07-25T01:01:00.332Z,1008.03
2018-07-25T01:02:00.334Z,1008.05
2018-07-25T01:03:00.345Z,1008.00
2018-07-25T01:04:00.351Z,1008.03
2018-07-25T01:05:00.367Z,1008.04
2018-07-25T01:06:00.367Z,1008.02
2018-07-25T01:07:00.374Z,1008.06
2018-07-25T01:08:01.115Z,1008.07
2018-07-25T01:09:00.388Z,1008.06
2018-07-25T01:10:00.398Z,1008.08
2018-07-25T01:11:00.406Z,1008.14
2018-07-25T01:12:00.419Z,1008.09
2018-07-25T01:13:00.433Z,1008.13
2018-07-25T01:14:00.424Z,1008.12
2018-07-25T01:15:00.435Z,1008.10
2018-07-25T01:16:00.450Z,1008.09
2018-07-25T01:17:00.450Z,1008.09
2018-07-25T01:18:00.462Z,1008.09
2018-07-25T01:19:00.469Z,1008.07
2018-07-25T01:20:00.474Z,1008.06
2018-07-25T01:21:00.487Z,1008.03
2018-07-25T01:22:00.491Z,1008.05
2018-07-25T01:23:00.503Z,1008.06
2018-07-25T01:24:00.502Z,1008.09
2018-07-25T01:25:00.508Z,1008.08
2018-07-25T01:26:00.522Z,1008.08
2018-07-25T01:27:00.531Z,1008.10
2018-07-25T01:28:00.541Z,1008.13
2018-07-25T01:29:00.546Z,1008.13
2018-07-25T01:30:00.552Z,1008.15
2018-07-25T01:31:00.560Z,1008.13
2018-07-25T01:32:00.584Z,1008.16
2018-07-25T01:33:00.582Z,1008.15
2018-07-25T01:34:00.586Z,1008.14
2018-07-25T01:35:00.667Z,1008.16
2018-07-25T01:36:00.597Z,1008.20
2018-07-25T01:37:00.618Z,1008.21
2018-07-25T01:38:00.620Z,1008.21
2018-07-25T01:39:00.634Z,1008.18
2018-07-25T01:40:00.636Z,1008.18
2018-07-25T01:41:00.642Z,1008.22
2018-07-25T01:42:00.647Z,1008.21
2018-07-25T01:43:00.659Z,1008.25
2018-07-25T01:44:00.670Z,1008.23
2018-07-25T01:45:00.680Z,1008.26
2018-07-25T01:46:01.617Z,1008.26
2018-07-25T01:47:00.689Z,1008.27
2018-07-25T01:48:00.696Z,1008.24
2018-07-25T01:49:00.703Z,1008.27
2018-07-25T01:50:00.711Z,1008.26
2018-07-25T01:51:00.713Z,1008.30
2018-07-25T01:52:00.732Z,1008.31
2018-07-25T01:53:00.734Z,1008.35
2018-07-25T01:54:00.741Z,1008.34
2018-07-25T01:55:00.749Z,1008.36
2018-07-25T01:56:00.755Z,1008.32
2018-07-25T01:57:00.756Z,1008.34
2018-07-25T01:58:00.773Z,1008.35
2018-07-25T01:59:00.777Z,1008.34
2018-07-25T02:00:00.789Z,1008.33
2018-07-25T02:01:00.789Z,1008.33
2018-07-25T02:02:00.804Z,1008.33
2018-07-25T02:03:00.809Z,1008.30
2018-07-25T02:04:00.813Z,1008.34
2018-07-25T02:05:00.826Z,1008.30
2018-07-25T02:06:00.827Z,1008.32
2018-07-25T02:07:00.835Z,1008.31
2018-07-25T02:08:00.846Z,1008.29
2018-07-25T02:09:00.854Z,1008.29
2018-07-25T02:10:00.864Z,1008.31
2018-07-25T02:11:00.863Z,1008.29
2018-07-25T02:12:00.893Z,1008.31
2018-07-25T02:13:00.879Z,1008.34
2018-07-25T02:14:00.890Z,1008.35
2018-07-25T02:15:00.928Z,1008.37
2018-07-25T02:16:00.908Z,1008.37
2018-07-25T02:17:00.912Z,1008.35
2018-07-25T02:18:00.920Z,1008.33
2018-07-25T02:19:00.933Z,1008.32
2018-07-25T02:20:00.932Z,1008.35
2018-07-25T02:21:00.945Z,1008.36
2018-07-25T02:22:00.948Z,1008.37
2018-07-25T02:23:00.956Z,1008.32
2018-07-25T02:24:00.968Z,1008.35
2018-07-25T02:25:00.977Z,1008.35
2018-07-25T02:26:01.632Z,1008.37
2018-07-25T02:27:00.988Z,1008.35
2018-07-25T02:28:00.990Z,1008.31
2018-07-25T02:29:01.001Z,1008.34
2018-07-25T02:30:01.016Z,1008.33
2018-07-25T02:31:01.011Z,1008.34
2018-07-25T02:32:01.029Z,1008.37
2018-07-25T02:33:01.036Z,1008.35
2018-07-25T02:34:01.037Z,1008.31
2018-07-25T02:35:01.047Z,1008.34
2018-07-25T02:36:01.052Z,1008.37
2018-07-25T02:37:01.059Z,1008.33
2018-07-25T02:38:01.070Z,1008.35
2018-07-25T02:39:01.077Z,1008.34
2018-07-25T02:40:01.085Z,1008.36
2018-07-25T02:41:01.096Z,1008.35
2018-07-25T02:42:01.101Z,1008.36
2018-07-25T02:43:01.103Z,1008.35
2018-07-25T02:44:01.115Z,1008.39
2018-07-25T02:45:01.130Z,1008.38
2018-07-25T02:46:01.127Z,1008.39
2018-07-25T02:47:01.643Z,1008.38
2018-07-25T02:48:01.142Z,1008.41
2018-07-25T02:49:01.160Z,1008.42
2018-07-25T02:50:01.159Z,1008.42
2018-07-25T02:51:01.176Z,1008.43
2018-07-25T02:52:01.174Z,1008.44
2018-07-25T02:53:01.172Z,1008.46
2018-07-25T02:54:01.198Z,1008.46
2018-07-25T02:55:01.195Z,1008.44
2018-07-25T02:56:01.205Z,1008.44
2018-07-25T02:57:01.294Z,1008.46
2018-07-25T02:58:01.209Z,1008.46
2018-07-25T02:59:01.228Z,1008.48
2018-07-25T03:00:01.232Z,1008.47
2018-07-25T03:01:01.239Z,1008.50
2018-07-25T03:02:01.239Z,1008.47
2018-07-25T03:03:01.245Z,1008.49
2018-07-25T03:04:01.255Z,1008.48
2018-07-25T03:05:01.261Z,1008.49
2018-07-25T03:06:01.274Z,1008.50
2018-07-25T03:07:01.277Z,1008.50
2018-07-25T03:08:01.282Z,1008.54
2018-07-25T03:09:01.312Z,1008.51
2018-07-25T03:10:01.302Z,1008.55
2018-07-25T03:11:01.311Z,1008.54
2018-07-25T03:12:01.315Z,1008.58
2018-07-25T03:13:01.316Z,1008.55
2018-07-25T03:14:01.327Z,1008.55
2018-07-25T03:15:01.339Z,1008.56
2018-07-25T03:16:01.375Z,1008.54
2018-07-25T03:17:01.395Z,1008.57
2018-07-25T03:18:02.149Z,1008.57
2018-07-25T03:19:01.368Z,1008.58
2018-07-25T03:20:01.377Z,1008.57
2018-07-25T03:21:01.375Z,1008.54
2018-07-25T03:22:01.397Z,1008.59
2018-07-25T03:23:01.397Z,1008.57
2018-07-25T03:24:01.398Z,1008.56
2018-07-25T03:25:01.408Z,1008.54
2018-07-25T03:26:01.415Z,1008.53
2018-07-25T03:27:01.423Z,1008.55
2018-07-25T03:28:01.435Z,1008.55
2018-07-25T03:29:01.435Z,1008.56
2018-07-25T03:30:01.441Z,1008.53
2018-07-25T03:31:01.456Z,1008.55
2018-07-25T03:32:01.461Z,1008.58
2018-07-25T03:33:01.457Z,1008.56
2018-07-25T03:34:01.473Z,1008.54
2018-07-25T03:35:01.470Z,1008.55
2018-07-25T03:36:01.482Z,1008.56
2018-07-25T03:37:01.505Z,1008.56
2018-07-25T03:38:01.500Z,1008.55
2018-07-25T03:39:01.508Z,1008.53
2018-07-25T03:40:01.514Z,1008.55
2018-07-25T03:41:01.520Z,1008.54
2018-07-25T03:42:01.527Z,1008.51
2018-07-25T03:43:01.528Z,1008.56
2018-07-25T03:44:01.540Z,1008.51
2018-07-25T03:45:01.551Z,1008.53
2018-07-25T03:46:01.551Z,1008.59
2018-07-25T03:47:01.561Z,1008.59
2018-07-25T03:48:01.564Z,1008.56
2018-07-25T03:49:01.581Z,1008.59
2018-07-25T03:50:01.584Z,1008.60
2018-07-25T03:51:01.584Z,1008.59
2018-07-25T03:52:01.589Z,1008.61
2018-07-25T03:53:01.605Z,1008.57
2018-07-25T03:54:01.603Z,1008.57
2018-07-25T03:55:01.613Z,1008.57
2018-07-25T03:56:01.620Z,1008.57
2018-07-25T03:57:01.621Z,1008.57
2018-07-25T03:58:01.638Z,1008.55
2018-07-25T03:59:01.640Z,1008.56
2018-07-25T04:00:01.655Z,1008.58
2018-07-25T04:01:01.672Z,1008.60
2018-07-25T04:02:01.683Z,1008.59
2018-07-25T04:03:01.665Z,1008.61
2018-07-25T04:04:01.681Z,1008.60
2018-07-25T04:05:01.687Z,1008.59
2018-07-25T04:06:01.696Z,1008.64
2018-07-25T04:07:01.702Z,1008.52
2018-07-25T04:08:01.701Z,1008.61
2018-07-25T04:09:01.718Z,1008.59
2018-07-25T04:10:01.762Z,1008.61
2018-07-25T04:11:01.729Z,1008.60
2018-07-25T04:12:01.732Z,1008.60
2018-07-25T04:13:01.734Z,1008.61
2018-07-25T04:14:01.752Z,1008.61
2018-07-25T04:15:01.761Z,1008.63
2018-07-25T04:16:01.765Z,1008.65
2018-07-25T04:17:01.773Z,1008.64
2018-07-25T04:18:01.768Z,1008.66
2018-07-25T04:19:01.789Z,1008.65
2018-07-25T04:20:01.784Z,1008.67
2018-07-25T04:21:01.791Z,1008.63
2018-07-25T04:22:01.807Z,1008.65
2018-07-25T04:23:01.823Z,1008.65
2018-07-25T04:24:01.821Z,1008.68
2018-07-25T04:25:01.819Z,1008.67
2018-07-25T04:26:01.840Z,1008.63
2018-07-25T04:27:01.842Z,1008.69
2018-07-25T04:28:01.852Z,1008.68
2018-07-25T04:29:01.853Z,1008.68
2018-07-25T04:30:01.860Z,1008.66
2018-07-25T04:31:01.875Z,1008.68
2018-07-25T04:32:01.885Z,1008.70
2018-07-25T04:33:01.883Z,1008.71
2018-07-25T04:34:01.893Z,1008.72
2018-07-25T04:35:01.894Z,1008.75
2018-07-25T04:36:01.906Z,1008.80
2018-07-25T04:37:01.908Z,1008.74
2018-07-25T04:38:01.919Z,1008.80
2018-07-25T04:39:01.929Z,1008.78
2018-07-25T04:40:01.930Z,1008.76
2018-07-25T04:41:01.937Z,1008.78
2018-07-25T04:42:01.950Z,1008.79
2018-07-25T04:43:01.963Z,1008.77
2018-07-25T04:44:01.957Z,1008.78
2018-07-25T04:45:01.972Z,1008.82
2018-07-25T04:46:02.022Z,1008.81
2018-07-25T04:47:01.982Z,1008.83
2018-07-25T04:48:01.995Z,1008.82
2018-07-25T04:49:02.004Z,1008.78
2018-07-25T04:50:02.004Z,1008.80
2018-07-25T04:51:02.012Z,1008.77
2018-07-25T04:52:02.023Z,1008.81
2018-07-25T04:53:02.044Z,1008.78
2018-07-25T04:54:02.046Z,1008.79
2018-07-25T04:55:02.057Z,1008.82
2018-07-25T04:56:02.075Z,1008.83
2018-07-25T04:57:02.066Z,1008.83
2018-07-25T04:58:02.066Z,1008.86
2018-07-25T04:59:02.075Z,1008.86
2018-07-25T05:00:02.081Z,1008.87
2018-07-25T05:01:02.086Z,1008.87
2018-07-25T05:02:02.097Z,1008.87
2018-07-25T05:03:02.100Z,1008.90
2018-07-25T05:04:02.113Z,1008.93
2018-07-25T05:05:02.118Z,1008.94
2018-07-25T05:06:02.121Z,1008.96
2018-07-25T05:07:02.154Z,1008.95
2018-07-25T05:08:02.148Z,1008.95
2018-07-25T05:09:02.144Z,1008.95
2018-07-25T05:10:02.161Z,1008.96
2018-07-25T05:11:02.168Z,1008.97
2018-07-25T05:12:02.166Z,1008.99
2018-07-25T05:13:02.182Z,1008.97
2018-07-25T05:14:02.181Z,1009.03
2018-07-25T05:15:02.193Z,1009.02
2018-07-25T05:16:02.204Z,1009.02
2018-07-25T05:17:02.211Z,1009.03
2018-07-25T05:18:02.291Z,1009.04
2018-07-25T05:19:02.225Z,1009.05
2018-07-25T05:20:02.233Z,1009.11
2018-07-25T05:21:02.249Z,1009.10
2018-07-25T05:22:02.241Z,1009.13
2018-07-25T05:23:02.263Z,1009.15
2018-07-25T05:24:02.256Z,1009.16
2018-07-25T05:25:02.275Z,1009.20
2018-07-25T05:26:02.284Z,1009.21
2018-07-25T05:27:02.288Z,1009.26
2018-07-25T05:28:02.301Z,1009.23
2018-07-25T05:29:02.309Z,1009.28
2018-07-25T05:30:02.320Z,1009.28
2018-07-25T05:31:02.322Z,1009.34
2018-07-25T05:32:02.326Z,1009.31
2018-07-25T05:33:02.336Z,1009.38
2018-07-25T05:34:02.344Z,1009.47
2018-07-25T05:35:02.350Z,1009.54
2018-07-25T05:36:02.360Z,1009.48
2018-07-25T05:37:02.367Z,1009.51
2018-07-25T05:38:02.396Z,1009.71
2018-07-25T05:39:02.382Z,1009.71
2018-07-25T05:40:02.397Z,1009.78
2018-07-25T05:41:02.400Z,1009.79
2018-07-25T05:42:02.412Z,1009.82
2018-07-25T05:43:02.424Z,1009.86
2018-07-25T05:44:02.425Z,1009.86
2018-07-25T05:45:02.445Z,1009.89
2018-07-25T05:46:02.448Z,1009.94
2018-07-25T05:47:02.459Z,1009.99
2018-07-25T05:48:02.476Z,1009.98
2018-07-25T05:49:02.486Z,1010.00
2018-07-25T05:50:02.503Z,1010.01
2018-07-25T05:51:02.512Z,1010.03
2018-07-25T05:52:02.516Z,1010.03
2018-07-25T05:53:02.533Z,1010.00
2018-07-25T05:54:02.537Z,1009.96
2018-07-25T05:55:02.552Z,1010.05
2018-07-25T05:56:02.568Z,1010.03
2018-07-25T05:57:02.580Z,1010.07
2018-07-25T05:58:02.596Z,1010.04
2018-07-25T05:59:02.606Z,1010.10
2018-07-25T06:00:02.625Z,1010.11
2018-07-25T06:01:02.635Z,1010.10
2018-07-25T06:02:02.647Z,1010.15
2018-07-25T06:03:02.796Z,1010.16
2018-07-25T06:04:02.680Z,1010.15
2018-07-25T06:05:02.854Z,1010.20
2018-07-25T06:06:02.728Z,1010.23
2018-07-25T06:07:02.720Z,1010.27
2018-07-25T06:08:02.724Z,1010.30
2018-07-25T06:09:02.746Z,1010.27
2018-07-25T06:10:02.756Z,1010.27
2018-07-25T06:11:02.778Z,1010.31
2018-07-25T06:12:02.788Z,1010.34
2018-07-25T06:13:02.805Z,1010.35
2018-07-25T06:14:02.822Z,1010.35
2018-07-25T06:15:02.843Z,1010.33
2018-07-25T06:16:02.853Z,1010.30
2018-07-25T06:17:02.890Z,1010.34
2018-07-25T06:18:02.881Z,1010.38
2018-07-25T06:19:02.899Z,1010.38
2018-07-25T06:20:02.923Z,1010.38
2018-07-25T06:21:02.924Z,1010.39
2018-07-25T06:22:02.947Z,1010.41
2018-07-25T06:23:02.960Z,1010.41
2018-07-25T06:24:02.980Z,1010.42
2018-07-25T06:25:02.996Z,1010.42
2018-07-25T06:26:03.118Z,1010.42
2018-07-25T06:27:03.029Z,1010.38
2018-07-25T06:28:03.049Z,1010.44
2018-07-25T06:29:03.053Z,1010.45
2018-07-25T06:30:03.085Z,1010.46
2018-07-25T06:31:03.090Z,1010.48
2018-07-25T06:32:03.113Z,1010.50
2018-07-25T06:33:03.122Z,1010.47
2018-07-25T06:34:03.141Z,1010.49
2018-07-25T06:35:03.181Z,1010.45
2018-07-25T06:36:03.191Z,1010.47
2018-07-25T06:37:03.202Z,1010.48
2018-07-25T06:38:03.279Z,1010.54
2018-07-25T06:39:03.243Z,1010.54
2018-07-25T06:40:05.230Z,1010.56
2018-07-25T06:41:03.263Z,1010.51
2018-07-25T06:42:03.293Z,1010.55
2018-07-25T06:43:03.304Z,1010.54
2018-07-25T06:44:03.326Z,1010.58
2018-07-25T06:45:03.353Z,1010.59
2018-07-25T06:46:03.369Z,1010.62
2018-07-25T06:47:03.376Z,1010.64
2018-07-25T06:48:03.402Z,1010.60
2018-07-25T06:49:03.424Z,1010.62
2018-07-25T06:50:03.430Z,1010.62
2018-07-25T06:51:03.457Z,1010.65
2018-07-25T06:52:03.474Z,1010.68
2018-07-25T06:53:03.491Z,1010.68
2018-07-25T06:54:03.543Z,1010.69
2018-07-25T06:55:03.549Z,1010.66
2018-07-25T06:56:03.551Z,1010.64
2018-07-25T06:57:03.572Z,1010.62
2018-07-25T06:58:03.591Z,1010.60
2018-07-25T06:59:03.613Z,1010.66
2018-07-25T07:00:03.627Z,1010.68
2018-07-25T07:01:03.648Z,1010.69
2018-07-25T07:02:03.672Z,1010.71
2018-07-25T07:03:03.706Z,1010.74
2018-07-25T07:04:03.743Z,1010.77
2018-07-25T07:05:03.729Z,1010.75
2018-07-25T07:06:03.745Z,1010.74
2018-07-25T07:07:03.785Z,1010.72
2018-07-25T07:08:03.789Z,1010.76
2018-07-25T07:09:03.813Z,1010.79
2018-07-25T07:10:03.836Z,1010.79
2018-07-25T07:11:03.849Z,1010.77
2018-07-25T07:12:03.892Z,1010.80
2018-07-25T07:13:03.893Z,1010.79
2018-07-25T07:14:03.920Z,1010.80
2018-07-25T07:15:03.934Z,1010.81
2018-07-25T07:16:04.000Z,1010.79
2018-07-25T07:17:03.975Z,1010.83
2018-07-25T07:18:03.998Z,1010.83
2018-07-25T07:19:04.017Z,1010.80
2018-07-25T07:20:04.044Z,1010.85
2018-07-25T07:21:04.074Z,1010.85
2018-07-25T07:22:04.077Z,1010.88
2018-07-25T07:23:04.102Z,1010.89
2018-07-25T07:24:04.189Z,1010.88
2018-07-25T07:25:04.147Z,1010.93
2018-07-25T07:26:04.172Z,1010.96
2018-07-25T07:27:04.185Z,1010.94
2018-07-25T07:28:04.216Z,1010.92
2018-07-25T07:29:04.238Z,1010.91
2018-07-25T07:30:04.253Z,1010.92
2018-07-25T07:31:04.294Z,1010.95
2018-07-25T07:32:04.300Z,1010.95
2018-07-25T07:33:04.316Z,1010.96
2018-07-25T07:34:04.347Z,1010.97
2018-07-25T07:35:04.366Z,1010.97
2018-07-25T07:36:04.394Z,1010.97
2018-07-25T07:37:04.409Z,1010.94
2018-07-25T07:38:04.461Z,1011.02
2018-07-25T07:39:04.450Z,1010.96
2018-07-25T07:40:04.473Z,1010.97
2018-07-25T07:41:04.501Z,1010.96
2018-07-25T07:42:04.521Z,1010.96
2018-07-25T07:43:04.542Z,1010.99
2018-07-25T07:44:04.601Z,1011.02
2018-07-25T07:45:05.245Z,1011.03
2018-07-25T07:46:04.629Z,1011.04
2018-07-25T07:47:04.638Z,1011.07
2018-07-25T07:48:04.656Z,1011.07
2018-07-25T07:49:04.683Z,1011.10
2018-07-25T07:50:04.702Z,1011.06
2018-07-25T07:51:04.745Z,1011.11
2018-07-25T07:52:04.750Z,1011.18
2018-07-25T07:53:04.768Z,1011.14
2018-07-25T07:54:04.822Z,1011.16
2018-07-25T07:55:04.815Z,1011.13
2018-07-25T07:56:04.837Z,1011.14
2018-07-25T07:57:04.860Z,1011.16
2018-07-25T07:58:04.886Z,1011.14
2018-07-25T07:59:04.905Z,1011.17
2018-07-25T08:00:04.942Z,1011.13
2018-07-25T08:01:04.956Z,1011.11
2018-07-25T08:02:04.978Z,1011.13
2018-07-25T08:03:05.012Z,1011.15
2018-07-25T08:04:05.022Z,1011.15
2018-07-25T08:05:05.090Z,1011.19
2018-07-25T08:06:05.079Z,1011.17
2018-07-25T08:07:05.095Z,1011.17
2018-07-25T08:08:05.124Z,1011.16
2018-07-25T08:09:05.143Z,1011.14
2018-07-25T08:10:05.171Z,1011.14
2018-07-25T08:11:05.191Z,1011.19
2018-07-25T08:12:05.214Z,1011.20
2018-07-25T08:13:05.236Z,1011.22
2018-07-25T08:14:05.257Z,1011.28
2018-07-25T08:15:05.288Z,1011.26
2018-07-25T08:16:05.309Z,1011.27
2018-07-25T08:17:05.368Z,1011.31
2018-07-25T08:18:05.444Z,1011.30
2018-07-25T08:19:05.435Z,1011.30
2018-07-25T08:20:05.406Z,1011.31
2018-07-25T08:21:05.446Z,1011.30
2018-07-25T08:22:05.468Z,1011.31
2018-07-25T08:23:05.481Z,1011.30
2018-07-25T08:24:05.499Z,1011.26
2018-07-25T08:25:05.527Z,1011.27
2018-07-25T08:26:05.554Z,1011.26
2018-07-25T08:27:05.566Z,1011.24
2018-07-25T08:28:05.606Z,1011.25
2018-07-25T08:29:05.618Z,1011.23
2018-07-25T08:30:05.647Z,1011.25
2018-07-25T08:31:05.678Z,1011.27
2018-07-25T08:32:05.699Z,1011.28
2018-07-25T08:33:05.732Z,1011.26
2018-07-25T08:34:05.757Z,1011.25
2018-07-25T08:35:05.763Z,1011.26
2018-07-25T08:36:05.797Z,1011.28
2018-07-25T08:37:05.817Z,1011.27
2018-07-25T08:38:05.842Z,1011.24
2018-07-25T08:39:05.871Z,1011.23
2018-07-25T08:40:05.890Z,1011.24
2018-07-25T08:41:05.956Z,1011.26
2018-07-25T08:42:05.939Z,1011.28
2018-07-25T08:43:05.964Z,1011.24
2018-07-25T08:44:05.999Z,1011.22
2018-07-25T08:45:06.010Z,1011.25
2018-07-25T08:46:06.049Z,1011.23
2018-07-25T08:47:06.070Z,1011.24
2018-07-25T08:48:06.092Z,1011.25
2018-07-25T08:49:06.125Z,1011.21
2018-07-25T08:50:06.137Z,1011.24
2018-07-25T08:51:06.165Z,1011.27
2018-07-25T08:52:06.197Z,1011.24
2018-07-25T08:53:06.212Z,1011.23
2018-07-25T08:54:06.246Z,1011.21
2018-07-25T08:55:06.269Z,1011.21
2018-07-25T08:56:06.295Z,1011.20
2018-07-25T08:57:06.321Z,1011.23
2018-07-25T08:58:06.342Z,1011.22
2018-07-25T08:59:06.366Z,1011.22
2018-07-25T09:00:06.398Z,1011.18
2018-07-25T09:01:06.425Z,1011.20
2018-07-25T09:02:06.449Z,1011.22
2018-07-25T09:03:06.478Z,1011.24
2018-07-25T09:04:06.492Z,1011.24
2018-07-25T09:05:06.525Z,1011.24
2018-07-25T09:06:06.545Z,1011.20
2018-07-25T09:07:06.579Z,1011.21
2018-07-25T09:08:06.603Z,1011.19
2018-07-25T09:09:06.622Z,1011.21
2018-07-25T09:10:06.656Z,1011.24
2018-07-25T09:11:06.673Z,1011.26
2018-07-25T09:12:06.704Z,1011.29
2018-07-25T09:13:06.828Z,1011.25
2018-07-25T09:14:06.750Z,1011.27
2018-07-25T09:15:06.824Z,1011.26
2018-07-25T09:16:06.799Z,1011.27
2018-07-25T09:17:06.855Z,1011.27
2018-07-25T09:18:06.913Z,1011.23
2018-07-25T09:19:06.922Z,1011.23
2018-07-25T09:20:06.918Z,1011.20
2018-07-25T09:21:06.945Z,1011.24
2018-07-25T09:22:06.952Z,1011.24
2018-07-25T09:23:06.982Z,1011.25
2018-07-25T09:24:07.012Z,1011.31
2018-07-25T09:25:07.068Z,1011.35
2018-07-25T09:26:07.071Z,1011.30
2018-07-25T09:27:07.092Z,1011.27
2018-07-25T09:28:07.111Z,1011.24
2018-07-25T09:29:07.138Z,1011.31
2018-07-25T09:30:07.178Z,1011.38
2018-07-25T09:31:07.200Z,1011.42
2018-07-25T09:32:07.218Z,1011.40
2018-07-25T09:33:07.249Z,1011.37
2018-07-25T09:34:07.332Z,1011.34
2018-07-25T09:35:07.298Z,1011.40
2018-07-25T09:36:07.326Z,1011.37
2018-07-25T09:37:07.348Z,1011.33
2018-07-25T09:38:07.370Z,1011.35
2018-07-25T09:39:07.394Z,1011.38
2018-07-25T09:40:07.434Z,1011.49
2018-07-25T09:41:07.478Z,1011.55
2018-07-25T09:42:07.477Z,1011.54
2018-07-25T09:43:07.510Z,1011.51
2018-07-25T09:44:07.541Z,1011.46
2018-07-25T09:45:07.558Z,1011.38
2018-07-25T09:46:07.605Z,1011.39
2018-07-25T09:47:07.617Z,1011.30
2018-07-25T09:48:07.629Z,1011.20
2018-07-25T09:49:07.654Z,1011.15
2018-07-25T09:50:07.689Z,1011.05
2018-07-25T09:51:07.709Z,1010.97
2018-07-25T09:52:07.745Z,1010.77
2018-07-25T09:53:07.837Z,1010.67
2018-07-25T09:54:07.787Z,1010.50
2018-07-25T09:55:08.780Z,1010.43
2018-07-25T09:56:07.875Z,1010.39
2018-07-25T09:57:07.867Z,1010.37
2018-07-25T09:58:07.899Z,1010.34
2018-07-25T09:59:07.927Z,1010.34
2018-07-25T10:00:07.968Z,1010.37
2018-07-25T10:01:08.059Z,1010.33
2018-07-25T10:02:08.034Z,1010.28
2018-07-25T10:03:08.053Z,1010.30
2018-07-25T10:04:08.797Z,1010.27
2018-07-25T10:05:08.110Z,1010.24
2018-07-25T10:06:08.805Z,1010.26
2018-07-25T10:07:08.158Z,1010.25
2018-07-25T10:08:08.177Z,1010.23
2018-07-25T10:09:08.201Z,1010.23
2018-07-25T10:10:08.805Z,1010.19
2018-07-25T10:11:08.277Z,1010.19
2018-07-25T10:12:08.319Z,1010.16
2018-07-25T10:13:08.303Z,1010.12
2018-07-25T10:14:08.326Z,1010.19
2018-07-25T10:15:09.391Z,1010.18
2018-07-25T10:16:08.384Z,1010.15
2018-07-25T10:17:08.406Z,1010.13
2018-07-25T10:18:08.438Z,1010.15
2018-07-25T10:19:08.472Z,1010.14
2018-07-25T10:20:08.486Z,1010.10
2018-07-25T10:21:08.511Z,1010.08
2018-07-25T10:22:10.295Z,1010.06
2018-07-25T10:23:08.583Z,1010.07
2018-07-25T10:24:08.599Z,1010.06
2018-07-25T10:25:08.611Z,1010.00
2018-07-25T10:26:08.638Z,1010.03
2018-07-25T10:27:08.706Z,1009.99
2018-07-25T10:28:08.701Z,1009.99
2018-07-25T10:29:08.721Z,1009.94
2018-07-25T10:30:08.741Z,1009.99
2018-07-25T10:31:08.791Z,1009.99
2018-07-25T10:32:09.295Z,1009.95
2018-07-25T10:33:09.795Z,1009.98
2018-07-25T10:34:08.846Z,1009.94
2018-07-25T10:35:08.869Z,1009.96
2018-07-25T10:36:08.903Z,1009.92
2018-07-25T10:37:08.926Z,1009.93
2018-07-25T10:38:08.948Z,1009.88
2018-07-25T10:39:09.060Z,1009.86
2018-07-25T10:40:09.002Z,1009.85
2018-07-25T10:41:09.021Z,1009.87
2018-07-25T10:42:09.054Z,1009.86
2018-07-25T10:43:09.073Z,1009.84
2018-07-25T10:44:09.099Z,1009.83
2018-07-25T10:45:09.802Z,1009.82
2018-07-25T10:46:09.798Z,1009.83
2018-07-25T10:47:09.179Z,1009.79
2018-07-25T10:48:10.795Z,1009.76
2018-07-25T10:49:09.798Z,1009.79
2018-07-25T10:50:09.255Z,1009.75
2018-07-25T10:51:09.797Z,1009.71
2018-07-25T10:52:09.301Z,1009.74
2018-07-25T10:53:09.325Z,1009.74
2018-07-25T10:54:09.351Z,1009.75
2018-07-25T10:55:10.297Z,1009.75
2018-07-25T10:56:09.403Z,1009.73
2018-07-25T10:57:09.425Z,1009.74
2018-07-25T10:58:09.448Z,1009.73
2018-07-25T10:59:09.473Z,1009.67
2018-07-25T11:00:09.497Z,1009.72
2018-07-25T11:01:09.520Z,1009.71
2018-07-25T11:02:10.416Z,1009.72
2018-07-25T11:03:09.573Z,1009.68
2018-07-25T11:04:09.598Z,1009.65
2018-07-25T11:05:09.618Z,1009.65
2018-07-25T11:06:09.645Z,1009.65
2018-07-25T11:07:09.667Z,1009.64
2018-07-25T11:08:09.698Z,1009.60
2018-07-25T11:09:10.300Z,1009.62
2018-07-25T11:10:09.739Z,1009.63
2018-07-25T11:11:09.765Z,1009.65
2018-07-25T11:12:10.306Z,1009.59
2018-07-25T11:13:10.806Z,1009.59
2018-07-25T11:14:09.845Z,1009.56
2018-07-25T11:15:10.801Z,1009.54
2018-07-25T11:16:11.807Z,1009.59
2018-07-25T11:17:09.908Z,1009.59
2018-07-25T11:18:09.937Z,1009.58
2018-07-25T11:19:09.953Z,1009.55
2018-07-25T11:20:10.805Z,1009.61
2018-07-25T11:21:12.804Z,1009.54
2018-07-25T11:22:10.024Z,1009.58
2018-07-25T11:23:10.113Z,1009.57
2018-07-25T11:24:10.804Z,1009.55
2018-07-25T11:25:10.806Z,1009.53
2018-07-25T11:26:10.118Z,1009.53
2018-07-25T11:27:10.152Z,1009.49
2018-07-25T11:28:10.804Z,1009.52
2018-07-25T11:29:10.810Z,1009.48
2018-07-25T11:30:10.211Z,1009.52
2018-07-25T11:31:10.808Z,1009.54
2018-07-25T11:32:10.263Z,1009.51
2018-07-25T11:33:10.289Z,1009.55
2018-07-25T11:34:10.309Z,1009.48
2018-07-25T11:35:10.328Z,1009.48
2018-07-25T11:36:10.369Z,1009.48
2018-07-25T11:37:10.374Z,1009.54
2018-07-25T11:38:10.433Z,1009.49
2018-07-25T11:39:11.308Z,1009.48
2018-07-25T11:40:11.308Z,1009.47
2018-07-25T11:41:10.467Z,1009.51
2018-07-25T11:42:10.487Z,1009.53
2018-07-25T11:43:10.511Z,1009.32
2018-07-25T11:44:10.535Z,1009.53
2018-07-25T11:45:10.555Z,1009.49
2018-07-25T11:46:10.580Z,1009.51
2018-07-25T11:47:10.607Z,1009.47
2018-07-25T11:48:13.309Z,1009.48
2018-07-25T11:49:10.645Z,1009.44
2018-07-25T11:50:10.708Z,1009.39
2018-07-25T11:51:10.685Z,1009.39
2018-07-25T11:52:10.708Z,1009.39
2018-07-25T11:53:10.733Z,1009.38
2018-07-25T11:54:10.751Z,1009.41
2018-07-25T11:55:10.775Z,1009.38
2018-07-25T11:56:10.795Z,1009.33
2018-07-25T11:57:10.820Z,1009.37
2018-07-25T11:58:10.839Z,1009.36
2018-07-25T11:59:11.814Z,1009.34
2018-07-25T12:00:10.888Z,1009.33
2018-07-25T12:01:10.951Z,1009.28
2018-07-25T12:02:10.923Z,1009.30
2018-07-25T12:03:10.949Z,1009.31
2018-07-25T12:04:11.819Z,1009.28
2018-07-25T12:05:10.985Z,1009.29
2018-07-25T12:06:11.007Z,1009.32